createdAt,value
2018-07-04T00:02:19.890Z,70.92
2018-07-04T00:05:06.014Z,71.10
2018-07-04T00:07:52.271Z,71.34
2018-07-04T00:10:38.534Z,71.50
2018-07-04T00:13:24.751Z,72.39
2018-07-04T00:16:10.992Z,73.26
2018-07-04T00:18:57.211Z,72.59
2018-07-04T00:21:43.463Z,72.99
2018-07-04T00:24:29.734Z,72.65
2018-07-04T00:27:15.902Z,72.62
2018-07-04T00:30:02.168Z,73.21
2018-07-04T00:32:48.279Z,73.29
2018-07-04T00:35:34.397Z,73.54
2018-07-04T00:38:20.525Z,74.00
2018-07-04T00:41:06.635Z,73.53
2018-07-04T00:43:52.797Z,74.06
2018-07-04T00:46:38.852Z,73.70
2018-07-04T00:49:24.997Z,73.96
2018-07-04T00:52:11.099Z,73.77
2018-07-04T00:54:57.282Z,73.00
2018-07-04T00:57:43.309Z,74.17
2018-07-04T01:00:29.488Z,74.69
2018-07-04T01:03:15.570Z,74.28
2018-07-04T01:06:01.855Z,74.26
2018-07-04T01:08:48.064Z,74.97
2018-07-04T01:11:34.079Z,74.00
2018-07-04T01:14:20.217Z,75.44
2018-07-04T01:17:06.354Z,75.57
2018-07-04T01:19:52.751Z,74.41
2018-07-04T01:22:38.968Z,75.66
2018-07-04T01:25:25.228Z,75.88
2018-07-04T01:28:11.506Z,75.30
2018-07-04T01:30:57.559Z,75.94
2018-07-04T01:33:43.589Z,76.93
2018-07-04T01:36:29.639Z,77.39
2018-07-04T01:39:15.680Z,76.40
2018-07-04T01:42:01.839Z,76.37
2018-07-04T01:44:47.935Z,77.52
2018-07-04T01:47:34.046Z,77.89
2018-07-04T01:50:20.071Z,77.30
2018-07-04T01:53:06.150Z,76.23
2018-07-04T01:55:52.184Z,77.50
2018-07-04T01:58:38.343Z,77.28
2018-07-04T02:01:24.406Z,77.56
2018-07-04T02:04:10.624Z,77.45
2018-07-04T02:06:56.785Z,76.62
2018-07-04T02:09:42.912Z,79.06
2018-07-04T02:12:29.011Z,79.24
2018-07-04T02:15:15.317Z,78.40
2018-07-04T02:18:01.328Z,78.09
2018-07-04T02:20:47.395Z,78.45
2018-07-04T02:23:33.553Z,78.05
2018-07-04T02:26:19.705Z,78.06
2018-07-04T02:29:05.846Z,77.79
2018-07-04T02:31:52.008Z,77.71
2018-07-04T02:34:38.191Z,78.95
2018-07-04T02:37:24.326Z,78.89
2018-07-04T02:40:10.531Z,78.53
2018-07-04T02:42:56.771Z,78.54
2018-07-04T02:45:42.943Z,78.82
2018-07-04T02:48:29.076Z,78.68
2018-07-04T02:51:15.144Z,79.07
2018-07-04T02:54:01.215Z,79.11
2018-07-04T02:56:47.325Z,78.68
2018-07-04T02:59:33.465Z,78.84
2018-07-04T03:02:19.659Z,79.75
2018-07-04T03:05:05.782Z,78.76
2018-07-04T03:07:52.003Z,78.60
2018-07-04T03:10:38.222Z,78.59
2018-07-04T03:13:24.240Z,77.77
2018-07-04T03:16:10.362Z,78.29
2018-07-04T03:18:56.381Z,77.46
2018-07-04T03:21:42.453Z,77.76
2018-07-04T03:24:28.630Z,77.74
2018-07-04T03:27:14.810Z,77.68
2018-07-04T03:30:00.942Z,77.79
2018-07-04T03:32:47.000Z,77.73
2018-07-04T03:35:33.259Z,77.24
2018-07-04T03:38:19.501Z,77.40
2018-07-04T03:41:05.499Z,77.29
2018-07-04T03:43:51.865Z,77.36
2018-07-04T03:46:37.997Z,77.45
2018-07-04T03:49:24.038Z,77.80
2018-07-04T03:52:10.051Z,77.81
2018-07-04T03:54:56.193Z,77.18
2018-07-04T03:57:42.375Z,77.26
2018-07-04T04:00:28.500Z,77.14
2018-07-04T04:03:14.614Z,77.54
2018-07-04T04:06:00.945Z,77.37
2018-07-04T04:08:47.236Z,77.34
2018-07-04T04:11:33.316Z,77.36
2018-07-04T04:14:19.429Z,77.45
2018-07-04T04:17:05.568Z,77.98
2018-07-04T04:19:51.727Z,77.28
2018-07-04T04:22:37.809Z,77.63
2018-07-04T04:25:23.942Z,77.71
2018-07-04T04:28:11.459Z,77.23
2018-07-04T04:30:51.615Z,77.43
2018-07-04T04:33:37.813Z,77.19
2018-07-04T04:36:24.022Z,77.14
2018-07-04T04:39:10.028Z,77.82
2018-07-04T04:41:56.456Z,77.14
2018-07-04T04:44:42.591Z,77.61
2018-07-04T04:47:28.883Z,77.52
2018-07-04T04:50:15.190Z,77.82
2018-07-04T04:52:55.685Z,79.03
2018-07-04T04:55:41.961Z,78.90
2018-07-04T04:58:28.250Z,77.85
2018-07-04T05:01:08.530Z,76.63
2018-07-04T05:03:54.659Z,77.24
2018-07-04T05:06:40.868Z,76.92
2018-07-04T05:09:27.066Z,76.86
2018-07-04T05:12:13.440Z,76.68
2018-07-04T05:14:59.732Z,76.22
2018-07-04T05:17:45.943Z,77.20
2018-07-04T05:20:32.234Z,78.36
2018-07-04T05:23:18.464Z,78.37
2018-07-04T05:26:04.670Z,78.94
2018-07-04T05:28:51.040Z,79.27
2018-07-04T05:31:37.272Z,78.70
2018-07-04T05:34:23.640Z,78.60
2018-07-04T05:37:09.816Z,78.12
2018-07-04T05:39:50.152Z,78.34
2018-07-04T05:42:36.477Z,78.47
2018-07-04T05:45:22.643Z,78.18
2018-07-04T05:48:08.940Z,77.37
2018-07-04T05:50:55.213Z,77.67
2018-07-04T05:53:41.349Z,75.84
2018-07-04T05:56:27.475Z,75.34
2018-07-04T05:59:13.747Z,76.38
2018-07-04T06:01:59.998Z,75.97
2018-07-04T06:04:46.251Z,76.40
2018-07-04T06:07:26.584Z,76.42
2018-07-04T06:10:12.757Z,76.56
2018-07-04T06:12:58.881Z,76.39
2018-07-04T06:15:40.005Z,74.28
2018-07-04T06:18:26.145Z,73.02
2018-07-04T06:21:12.390Z,73.07
2018-07-04T06:23:52.673Z,72.94
2018-07-04T06:26:38.901Z,73.34
2018-07-04T06:29:25.323Z,73.52
2018-07-04T06:32:11.524Z,74.72
2018-07-04T06:34:57.804Z,74.94
2018-07-04T06:37:40.943Z,74.99
2018-07-04T06:40:09.050Z,75.15
2018-07-04T06:42:37.697Z,74.14
2018-07-04T06:45:05.501Z,73.75
2018-07-04T06:47:33.502Z,72.60
2018-07-04T06:50:01.271Z,72.70
2018-07-04T06:52:29.509Z,73.36
2018-07-04T06:54:57.258Z,72.98
2018-07-04T06:57:25.057Z,73.04
2018-07-04T06:59:52.790Z,72.02
2018-07-04T07:02:21.280Z,70.48
2018-07-04T07:05:07.626Z,71.06
2018-07-04T07:07:53.898Z,71.19
2018-07-04T07:10:40.138Z,70.96
2018-07-04T07:13:26.340Z,69.84
2018-07-04T07:16:12.641Z,67.20
2018-07-04T07:18:58.823Z,67.36
2018-07-04T07:21:44.923Z,66.51
2018-07-04T07:24:31.167Z,67.64
2018-07-04T07:27:17.274Z,67.96
2018-07-04T07:30:03.501Z,68.21
2018-07-04T07:32:49.680Z,69.15
2018-07-04T07:35:35.739Z,69.70
2018-07-04T07:38:21.947Z,69.71
2018-07-04T07:41:08.111Z,70.52
2018-07-04T07:43:54.399Z,69.63
2018-07-04T07:46:40.570Z,71.32
2018-07-04T07:49:20.807Z,69.47
2018-07-04T07:52:07.065Z,69.49
2018-07-04T07:54:53.241Z,69.57
2018-07-04T07:57:39.385Z,70.74
2018-07-04T08:00:19.881Z,71.46
2018-07-04T08:03:00.269Z,71.22
2018-07-04T08:05:46.888Z,71.73
2018-07-04T08:08:33.307Z,72.75
2018-07-04T08:11:19.468Z,72.34
2018-07-04T08:14:05.612Z,71.52
2018-07-04T08:16:51.779Z,70.22
2018-07-04T08:19:37.839Z,70.43
2018-07-04T08:22:24.026Z,70.93
2018-07-04T08:25:10.148Z,70.72
2018-07-04T08:27:50.374Z,70.62
2018-07-04T08:30:36.756Z,69.87
2018-07-04T08:33:23.011Z,73.23
2018-07-04T08:36:09.362Z,73.45
2018-07-04T08:38:55.781Z,74.02
2018-07-04T08:41:42.030Z,73.21
2018-07-04T08:44:28.193Z,73.76
2018-07-04T08:47:14.355Z,73.25
2018-07-04T08:50:00.731Z,71.64
2018-07-04T08:52:46.988Z,71.90
2018-07-04T08:55:33.209Z,72.43
2018-07-04T08:58:19.634Z,71.93
2018-07-04T09:01:06.044Z,72.00
2018-07-04T09:03:52.248Z,71.27
2018-07-04T09:06:38.358Z,71.30
2018-07-04T09:09:24.559Z,71.45
2018-07-04T09:12:10.842Z,70.99
2018-07-04T09:14:57.002Z,70.56
2018-07-04T09:17:43.158Z,70.21
2018-07-04T09:20:29.323Z,70.47
2018-07-04T09:23:15.444Z,71.15
2018-07-04T09:26:01.538Z,69.49
2018-07-04T09:28:47.694Z,69.85
2018-07-04T09:31:33.817Z,69.21
2018-07-04T09:34:20.065Z,68.80
2018-07-04T09:37:06.341Z,66.86
2018-07-04T09:39:52.493Z,67.99
2018-07-04T09:42:38.619Z,67.94
2018-07-04T09:45:24.864Z,67.39
2018-07-04T09:48:10.953Z,68.48
2018-07-04T09:50:57.262Z,67.20
2018-07-04T09:53:43.553Z,66.54
2018-07-04T09:56:23.801Z,66.15
2018-07-04T09:59:10.083Z,66.25
2018-07-04T10:01:56.182Z,65.27
2018-07-04T10:04:42.301Z,64.74
2018-07-04T10:07:28.562Z,65.70
2018-07-04T10:10:14.758Z,64.97
2018-07-04T10:13:01.010Z,64.85
2018-07-04T10:15:47.192Z,64.35
2018-07-04T10:18:33.491Z,63.63
2018-07-04T10:21:19.804Z,61.04
2018-07-04T10:24:06.099Z,61.48
2018-07-04T10:26:52.418Z,63.59
2018-07-04T10:29:38.593Z,63.97
2018-07-04T10:32:24.753Z,63.17
2018-07-04T10:35:10.934Z,61.14
2018-07-04T10:37:57.220Z,61.29
2018-07-04T10:40:43.379Z,61.78
2018-07-04T10:43:29.565Z,64.45
2018-07-04T10:46:16.250Z,66.85
2018-07-04T10:49:02.298Z,67.72
2018-07-04T10:51:42.503Z,71.07
2018-07-04T10:54:29.307Z,72.40
2018-07-04T10:57:15.666Z,73.37
2018-07-04T10:59:56.002Z,75.84
2018-07-04T11:02:42.261Z,77.31
2018-07-04T11:05:28.760Z,77.62
2018-07-04T11:08:15.102Z,80.45
2018-07-04T11:11:01.311Z,80.13
2018-07-04T11:13:47.496Z,80.24
2018-07-04T11:16:34.811Z,80.16
2018-07-04T11:19:20.929Z,80.47
2018-07-04T11:22:07.029Z,79.77
2018-07-04T11:24:53.402Z,80.36
2018-07-04T11:27:39.530Z,79.22
2018-07-04T11:30:25.656Z,80.12
2018-07-04T11:33:11.919Z,81.03
2018-07-04T11:35:58.222Z,77.76
2018-07-04T11:38:44.379Z,80.28
2018-07-04T11:41:30.739Z,79.27
2018-07-04T11:44:16.903Z,77.80
2018-07-04T11:46:44.664Z,81.61
2018-07-04T11:49:12.437Z,81.14
2018-07-04T11:51:40.190Z,78.72
2018-07-04T11:54:07.936Z,79.14
2018-07-04T11:56:35.720Z,75.82
2018-07-04T11:59:03.466Z,74.74
2018-07-04T12:01:31.217Z,73.64
2018-07-04T12:04:17.427Z,76.58
2018-07-04T12:07:07.110Z,75.23
2018-07-04T12:09:35.947Z,76.27
2018-07-04T12:12:03.787Z,77.07
2018-07-04T12:14:31.867Z,77.53
2018-07-04T12:17:00.162Z,78.08
2018-07-04T12:19:28.151Z,80.25
2018-07-04T12:21:55.921Z,81.50
2018-07-04T12:24:23.924Z,84.83
2018-07-04T12:26:51.717Z,81.78
2018-07-04T12:29:19.438Z,80.75
2018-07-04T12:31:47.210Z,79.23
2018-07-04T12:34:14.971Z,77.46
2018-07-04T12:36:42.718Z,76.61
2018-07-04T12:39:10.483Z,76.75
2018-07-04T12:41:38.226Z,76.42
2018-07-04T12:44:05.993Z,76.44
2018-07-04T12:46:33.743Z,74.48
2018-07-04T12:49:02.494Z,75.07
2018-07-04T12:51:31.877Z,75.92
2018-07-04T12:54:05.197Z,74.89
2018-07-04T12:56:51.556Z,72.91
2018-07-04T12:59:37.859Z,72.16
2018-07-04T13:02:25.196Z,73.72
2018-07-04T13:05:11.445Z,70.80
2018-07-04T13:07:57.520Z,71.02
2018-07-04T13:10:43.828Z,70.32
2018-07-04T13:13:30.060Z,69.51
2018-07-04T13:16:16.252Z,67.49
2018-07-04T13:19:02.562Z,65.45
2018-07-04T13:21:48.733Z,64.35
2018-07-04T13:24:34.866Z,64.97
2018-07-04T13:27:21.109Z,62.92
2018-07-04T13:30:01.488Z,64.70
2018-07-04T13:32:47.724Z,63.07
2018-07-04T13:35:33.934Z,62.53
2018-07-04T13:38:20.097Z,62.42
2018-07-04T13:41:06.164Z,63.10
2018-07-04T13:43:52.369Z,62.56
2018-07-04T13:46:38.618Z,63.65
2018-07-04T13:49:25.051Z,62.50
2018-07-04T13:52:11.227Z,61.96
2018-07-04T13:54:57.435Z,63.97
2018-07-04T13:57:43.692Z,64.73
2018-07-04T14:00:29.779Z,64.27
2018-07-04T14:03:15.970Z,65.40
2018-07-04T14:06:02.151Z,67.75
2018-07-04T14:08:48.445Z,61.09
2018-07-04T14:11:34.612Z,59.64
2018-07-04T14:14:20.882Z,59.99
2018-07-04T14:17:07.074Z,60.37
2018-07-04T14:19:53.229Z,62.44
2018-07-04T14:22:39.348Z,65.17
2018-07-04T14:25:25.487Z,78.40
2018-07-04T14:28:11.719Z,82.59
2018-07-04T14:30:58.002Z,83.84
2018-07-04T14:33:44.395Z,86.24
2018-07-04T14:36:30.474Z,85.72
2018-07-04T14:39:17.000Z,84.70
2018-07-04T14:42:03.258Z,88.37
2018-07-04T14:44:49.352Z,90.45
2018-07-04T14:47:35.641Z,90.62
2018-07-04T14:50:21.944Z,92.52
2018-07-04T14:53:08.299Z,92.64
2018-07-04T14:55:54.868Z,92.62
2018-07-04T14:58:41.077Z,93.13
2018-07-04T15:01:27.216Z,94.54
2018-07-04T15:04:07.562Z,92.48
2018-07-04T15:06:54.156Z,94.03
2018-07-04T15:09:40.495Z,94.77
2018-07-04T15:12:26.638Z,94.83
2018-07-04T15:15:12.838Z,95.81
2018-07-04T15:17:59.083Z,96.36
2018-07-04T15:20:45.274Z,95.28
2018-07-04T15:23:31.488Z,95.03
2018-07-04T15:26:17.686Z,95.63
2018-07-04T15:29:03.770Z,96.46
2018-07-04T15:31:50.122Z,95.86
2018-07-04T15:34:36.363Z,96.87
2018-07-04T15:37:16.688Z,97.58
2018-07-04T15:40:02.803Z,94.87
2018-07-04T15:42:48.953Z,93.03
2018-07-04T15:45:35.176Z,92.49
2018-07-04T15:48:21.367Z,93.76
2018-07-04T15:51:07.716Z,92.49
2018-07-04T15:53:48.033Z,92.28
2018-07-04T15:56:35.346Z,93.80
2018-07-04T15:59:21.683Z,93.82
2018-07-04T16:02:07.979Z,91.72
2018-07-04T16:04:54.209Z,92.76
2018-07-04T16:07:40.284Z,93.96
2018-07-04T16:10:26.529Z,94.15
2018-07-04T16:13:12.857Z,95.42
2018-07-04T16:15:58.971Z,93.75
2018-07-04T16:18:46.216Z,94.52
2018-07-04T16:21:32.369Z,95.24
2018-07-04T16:24:12.525Z,93.45
2018-07-04T16:26:58.835Z,94.46
2018-07-04T16:29:44.990Z,94.13
2018-07-04T16:32:31.210Z,92.92
2018-07-04T16:35:17.568Z,92.28
2018-07-04T16:38:03.824Z,90.74
2018-07-04T16:40:50.612Z,87.57
2018-07-04T16:43:36.706Z,88.13
2018-07-04T16:46:22.975Z,86.60
2018-07-04T16:49:09.609Z,84.98
2018-07-04T16:51:55.954Z,83.65
2018-07-04T16:54:42.160Z,84.50
2018-07-04T16:57:28.347Z,81.63
2018-07-04T17:00:14.428Z,81.40
2018-07-04T17:03:00.464Z,82.30
2018-07-04T17:05:46.688Z,81.36
2018-07-04T17:08:33.369Z,80.02
2018-07-04T17:11:19.623Z,80.54
2018-07-04T17:14:05.749Z,78.11
2018-07-04T17:16:51.974Z,78.48
2018-07-04T17:19:38.160Z,78.49
2018-07-04T17:22:24.355Z,78.32
2018-07-04T17:25:10.497Z,80.85
2018-07-04T17:27:56.883Z,81.57
2018-07-04T17:30:43.096Z,82.00
2018-07-04T17:33:29.247Z,83.31
2018-07-04T17:36:15.470Z,84.05
2018-07-04T17:39:01.791Z,84.38
2018-07-04T17:41:48.000Z,85.10
2018-07-04T17:44:34.346Z,87.02
2018-07-04T17:47:21.242Z,86.51
2018-07-04T17:50:07.528Z,87.33
2018-07-04T17:52:54.022Z,88.40
2018-07-04T17:55:40.288Z,87.98
2018-07-04T17:58:26.468Z,89.03
2018-07-04T18:01:12.685Z,90.40
2018-07-04T18:03:58.956Z,92.15
2018-07-04T18:06:45.129Z,91.95
2018-07-04T18:09:31.254Z,91.94
2018-07-04T18:12:17.571Z,92.87
2018-07-04T18:15:03.769Z,92.51
2018-07-04T18:17:49.930Z,91.57
2018-07-04T18:20:36.078Z,91.62
2018-07-04T18:23:22.180Z,90.60
2018-07-04T18:26:08.498Z,91.72
2018-07-04T18:28:54.585Z,91.10
2018-07-04T18:31:42.126Z,91.63
2018-07-04T18:34:28.417Z,91.71
2018-07-04T18:37:14.545Z,91.06
2018-07-04T18:40:00.821Z,91.06
2018-07-04T18:42:41.181Z,92.14
2018-07-04T18:45:27.417Z,92.34
2018-07-04T18:48:14.277Z,93.00
2018-07-04T18:50:54.495Z,92.93
2018-07-04T18:53:41.226Z,93.91
2018-07-04T18:56:27.408Z,94.08
2018-07-04T18:59:13.672Z,93.95
2018-07-04T19:02:00.050Z,93.71
2018-07-04T19:04:46.225Z,94.56
2018-07-04T19:07:32.385Z,93.88
2018-07-04T19:10:18.575Z,94.00
2018-07-04T19:13:05.224Z,93.54
2018-07-04T19:15:51.545Z,94.03
2018-07-04T19:18:37.770Z,94.74
2018-07-04T19:21:23.942Z,95.41
2018-07-04T19:24:10.701Z,96.86
2018-07-04T19:26:56.894Z,97.07
2018-07-04T19:29:42.979Z,96.93
2018-07-04T19:32:29.161Z,97.05
2018-07-04T19:35:15.361Z,96.89
2018-07-04T19:38:01.691Z,97.11
2018-07-04T19:40:47.979Z,96.82
2018-07-04T19:43:34.186Z,97.23
2018-07-04T19:46:20.782Z,95.85
2018-07-04T19:49:06.985Z,95.80
2018-07-04T19:51:53.241Z,95.61
2018-07-04T19:54:39.433Z,96.48
2018-07-04T19:57:26.591Z,97.34
2018-07-04T20:00:12.755Z,97.52
2018-07-04T20:02:58.936Z,96.61
2018-07-04T20:05:45.072Z,96.47
2018-07-04T20:08:31.489Z,96.56
2018-07-04T20:11:17.734Z,97.76
2018-07-04T20:14:04.151Z,97.83
2018-07-04T20:16:50.426Z,97.25
2018-07-04T20:19:36.627Z,97.54
2018-07-04T20:22:23.017Z,97.05
2018-07-04T20:25:09.500Z,97.15
2018-07-04T20:27:55.701Z,97.37
2018-07-04T20:30:41.878Z,97.36
2018-07-04T20:33:28.137Z,97.53
2018-07-04T20:36:14.507Z,97.75
2018-07-04T20:39:00.828Z,97.02
2018-07-04T20:41:47.334Z,96.76
2018-07-04T20:44:33.440Z,97.13
2018-07-04T20:47:19.717Z,96.46
2018-07-04T20:50:05.847Z,97.12
2018-07-04T20:52:52.062Z,97.58
2018-07-04T20:55:38.390Z,96.84
2018-07-04T20:58:25.164Z,96.39
2018-07-04T21:01:11.361Z,97.34
2018-07-04T21:03:58.128Z,98.01
2018-07-04T21:06:44.330Z,97.48
2018-07-04T21:09:30.561Z,97.22
2018-07-04T21:12:16.652Z,98.32
2018-07-04T21:15:02.904Z,98.18
2018-07-04T21:17:49.075Z,97.99
2018-07-04T21:20:35.246Z,98.23
2018-07-04T21:23:21.412Z,98.27
2018-07-04T21:26:07.560Z,98.68
2018-07-04T21:28:47.906Z,98.04
2018-07-04T21:31:28.243Z,98.01
2018-07-04T21:34:14.535Z,97.71
2018-07-04T21:37:00.715Z,97.51
2018-07-04T21:39:46.981Z,97.45
2018-07-04T21:42:33.210Z,97.58
2018-07-04T21:45:19.403Z,97.61
2018-07-04T21:48:05.794Z,97.92
2018-07-04T21:50:51.983Z,97.51
2018-07-04T21:53:38.357Z,97.65
2018-07-04T21:56:24.394Z,97.16
2018-07-04T21:59:10.680Z,97.16
2018-07-04T22:01:56.817Z,97.26
2018-07-04T22:04:42.872Z,97.47
2018-07-04T22:07:29.018Z,97.08
2018-07-04T22:10:09.333Z,97.16
2018-07-04T22:12:55.491Z,96.57
2018-07-04T22:15:41.882Z,96.33
2018-07-04T22:18:28.071Z,96.63
2018-07-04T22:21:14.204Z,96.27
2018-07-04T22:24:00.411Z,96.42
2018-07-04T22:26:46.624Z,96.75
2018-07-04T22:29:32.931Z,97.73
2018-07-04T22:32:19.161Z,96.77
2018-07-04T22:35:05.432Z,96.83
2018-07-04T22:37:51.606Z,97.32
2018-07-04T22:40:37.876Z,97.36
2018-07-04T22:43:24.047Z,97.11
2018-07-04T22:46:10.276Z,96.84
2018-07-04T22:48:56.449Z,97.34
2018-07-04T22:51:42.629Z,97.53
2018-07-04T22:54:28.849Z,98.15
2018-07-04T22:57:14.891Z,98.25
2018-07-04T22:59:55.157Z,97.78
2018-07-04T23:02:42.236Z,97.79
2018-07-04T23:05:28.329Z,98.33
2018-07-04T23:08:14.488Z,97.42
2018-07-04T23:11:00.652Z,97.58
2018-07-04T23:13:41.011Z,96.91
2018-07-04T23:16:21.260Z,97.03
2018-07-04T23:19:07.488Z,96.79
2018-07-04T23:21:53.682Z,97.80
2018-07-04T23:24:39.775Z,96.83
2018-07-04T23:27:25.852Z,97.20
2018-07-04T23:30:12.167Z,97.42
2018-07-04T23:32:58.455Z,97.34
2018-07-04T23:35:45.349Z,97.66
2018-07-04T23:38:32.011Z,97.16
2018-07-04T23:41:18.150Z,97.34
2018-07-04T23:44:04.430Z,96.67
2018-07-04T23:46:50.612Z,97.09
2018-07-04T23:49:36.771Z,96.26
2018-07-04T23:52:22.974Z,96.87
2018-07-04T23:55:09.309Z,97.74
2018-07-04T23:57:55.546Z,97.08
